Time;durP1;ratioP1;P1;durP2;ratioP2;P2;SDS_P1;SDS_P2;PMS_P1;PMS_P2;Temp;Humidity;BMP_temperature;BMP_pressure;BME280_temperature;BME280_humidity;BME280_pressure;Samples;Min_cycle;Max_cycle;Signal;HPM_P1;HPM_P2
2021/09/17 00:00:00;;;;;;;12.25;9.27;;;;;;;15.11;100.00;100590.28;4976717;28;20054;-66
2021/09/17 00:02:44;;;;;;;10.65;9.55;;;;;;;15.01;100.00;100586.91;4976458;28;20053;-66
2021/09/17 00:05:29;;;;;;;15.98;9.57;;;;;;;14.93;100.00;100592.25;4975385;28;20181;-66
2021/09/17 00:08:13;;;;;;;14.75;9.75;;;;;;;14.85;100.00;100589.53;4977232;28;20049;-65
2021/09/17 00:10:57;;;;;;;15.77;10.65;;;;;;;14.79;100.00;100590.22;4977341;28;20417;-66
2021/09/17 00:13:41;;;;;;;18.45;10.45;;;;;;;14.76;100.00;100593.19;4977239;28;20057;-65
2021/09/17 00:16:25;;;;;;;12.63;9.90;;;;;;;14.72;100.00;100592.72;4977109;28;20046;-66
2021/09/17 00:19:10;;;;;;;12.30;9.50;;;;;;;14.70;100.00;100589.31;4976868;28;20618;-66
2021/09/17 00:21:54;;;;;;;13.90;10.35;;;;;;;14.67;100.00;100588.81;4976345;28;20101;-65
2021/09/17 00:24:37;;;;;;;16.23;11.15;;;;;;;14.64;100.00;100589.13;4962400;28;20468;-64
2021/09/17 00:27:21;;;;;;;16.70;10.65;;;;;;;14.63;100.00;100587.47;4976613;28;20131;-66
2021/09/17 00:30:06;;;;;;;17.63;11.55;;;;;;;14.63;100.00;100591.00;4948745;28;20050;-65
2021/09/17 00:32:50;;;;;;;17.05;11.80;;;;;;;14.60;100.00;100590.47;4962530;28;20053;-66
2021/09/17 00:35:34;;;;;;;16.33;11.45;;;;;;;14.60;100.00;100585.09;4962013;28;20173;-66
2021/09/17 00:38:18;;;;;;;13.88;11.23;;;;;;;14.53;100.00;100581.38;4974479;28;20057;-65
2021/09/17 00:41:02;;;;;;;14.68;11.13;;;;;;;14.42;100.00;100585.22;4976748;28;20126;-66
2021/09/17 00:43:46;;;;;;;12.38;10.70;;;;;;;14.33;100.00;100579.94;4975437;28;20130;-66
2021/09/17 00:46:30;;;;;;;15.50;9.63;;;;;;;14.25;100.00;100588.81;4976552;28;20058;-65
2021/09/17 00:49:14;;;;;;;12.35;9.95;;;;;;;14.17;100.00;100593.28;4975524;28;20057;-66
2021/09/17 00:51:58;;;;;;;;;;;;;;;14.09;100.00;100587.84;4976931;28;20136;-66
2021/09/17 00:54:42;;;;;;;17.88;10.60;;;;;;;14.02;100.00;100589.47;4975778;28;19921;-65
2021/09/17 00:57:26;;;;;;;14.23;9.55;;;;;;;13.91;100.00;100585.22;4975371;28;20571;-66
2021/09/17 01:00:12;;;;;;;19.52;11.30;;;;;;;13.85;100.00;100590.34;4975119;28;20532;-65
2021/09/17 01:02:56;;;;;;;16.27;10.30;;;;;;;13.79;100.00;100591.81;4975350;28;20050;-63
2021/09/17 01:05:40;;;;;;;18.35;11.85;;;;;;;13.67;100.00;100589.56;4961613;28;20580;-66
2021/09/17 01:08:24;;;;;;;14.13;11.18;;;;;;;13.61;100.00;100587.50;4974944;28;20530;-65
2021/09/17 01:11:08;;;;;;;15.85;10.98;;;;;;;13.56;100.00;100581.78;4974859;28;20042;-65
2021/09/17 01:13:52;;;;;;;13.30;10.93;;;;;;;13.52;100.00;100583.94;4961425;28;20065;-66
2021/09/17 01:16:36;;;;;;;13.60;10.32;;;;;;;13.47;100.00;100585.41;4975712;28;20109;-65
2021/09/17 01:19:20;;;;;;;14.57;11.30;;;;;;;13.42;100.00;100571.63;4974731;28;20576;-66
2021/09/17 01:22:07;;;;;;;14.43;10.20;;;;;;;13.37;100.00;100584.63;4988434;28;20054;-65
2021/09/17 01:24:51;;;;;;;20.05;11.80;;;;;;;13.30;100.00;100576.38;4988395;28;20421;-65
2021/09/17 01:27:34;;;;;;;15.30;11.00;;;;;;;13.28;100.00;100574.84;4975842;28;20054;-65
2021/09/17 01:30:19;;;;;;;26.35;11.23;;;;;;;13.19;100.00;100562.38;4975750;28;20485;-65
2021/09/17 01:33:03;;;;;;;14.38;10.95;;;;;;;13.13;100.00;100569.19;4975726;28;20472;-66
2021/09/17 01:36:09;;;;;;;15.30;10.95;;;;;;;13.08;100.00;100565.28;4975702;28;20117;-66
2021/09/17 01:38:53;;;;;;;22.42;11.38;;;;;;;13.04;100.00;100570.09;4988499;28;20053;-65
2021/09/17 01:41:37;;;;;;;15.40;10.27;;;;;;;13.00;100.00;100554.50;4975329;28;20050;-65
2021/09/17 01:44:21;;;;;;;19.58;11.20;;;;;;;12.94;100.00;100555.13;4974249;28;20046;-65
2021/09/17 01:47:06;;;;;;;19.42;11.35;;;;;;;12.91;100.00;100550.03;4975409;28;20115;-65
2021/09/17 01:49:51;;;;;;;13.23;9.80;;;;;;;12.89;100.00;100552.88;4988450;28;20116;-66
2021/09/17 01:52:35;;;;;;;17.70;11.18;;;;;;;12.88;100.00;100550.34;4975114;28;20058;-65
2021/09/17 01:55:23;;;;;;;20.00;11.35;;;;;;;12.80;100.00;100541.41;4975371;28;20106;-65
2021/09/17 01:58:07;;;;;;;16.13;11.07;;;;;;;12.79;100.00;100540.53;4975019;28;20049;-66
2021/09/17 02:00:51;;;;;;;19.65;10.38;;;;;;;12.73;100.00;100540.31;4974010;28;20532;-65
2021/09/17 02:03:35;;;;;;;13.55;10.38;;;;;;;12.69;100.00;100545.13;4975230;28;20085;-65
2021/09/17 02:06:23;;;;;;;15.85;10.05;;;;;;;12.66;100.00;100541.91;4974156;28;20069;-65
2021/09/17 02:09:07;;;;;;;17.45;10.38;;;;;;;12.62;100.00;100545.88;4960252;28;20045;-65
2021/09/17 02:11:52;;;;;;;15.23;10.57;;;;;;;12.58;100.00;100542.66;4975107;28;20058;-65
2021/09/17 02:14:38;;;;;;;15.95;10.13;;;;;;;12.56;100.00;100546.47;4987783;28;20548;-64
2021/09/17 02:17:23;;;;;;;13.45;10.52;;;;;;;12.55;100.00;100542.97;4973808;28;20057;-66
2021/09/17 02:20:07;;;;;;;15.60;10.13;;;;;;;12.50;100.00;100544.41;4974894;28;20177;-65
2021/09/17 02:22:51;;;;;;;16.00;10.52;;;;;;;12.46;100.00;100543.88;4973968;28;20058;-65
2021/09/17 02:25:36;;;;;;;16.35;10.75;;;;;;;12.42;100.00;100542.50;4987326;28;20101;-66
2021/09/17 02:28:19;;;;;;;12.93;9.90;;;;;;;12.37;100.00;100539.41;4973239;28;20122;-65
2021/09/17 02:31:03;;;;;;;13.57;9.50;;;;;;;12.33;100.00;100537.19;4973841;28;20052;-65
2021/09/17 02:33:47;;;;;;;11.18;8.90;;;;;;;12.31;100.00;100539.16;4973832;28;20057;-65
2021/09/17 02:36:31;;;;;;;12.52;9.45;;;;;;;12.28;100.00;100539.47;4974384;28;20053;-65
2021/09/17 02:39:15;;;;;;;16.35;10.32;;;;;;;12.24;100.00;100536.25;5025218;22;20180;-71
2021/09/17 02:41:59;;;;;;;14.50;10.65;;;;;;;12.22;100.00;100535.56;4998813;28;20558;-71
2021/09/17 02:44:43;;;;;;;16.75;9.20;;;;;;;12.18;100.00;100534.16;4984776;28;20053;-71
2021/09/17 02:47:27;;;;;;;14.30;10.40;;;;;;;12.17;100.00;100532.47;5012680;28;20057;-71
2021/09/17 02:50:12;;;;;;;14.85;10.45;;;;;;;12.15;100.00;100529.13;5009557;28;20144;-71
2021/09/17 02:52:56;;;;;;;13.27;9.63;;;;;;;12.14;100.00;100532.78;5033025;28;20049;-70
2021/09/17 02:55:40;;;;;;;16.83;10.38;;;;;;;12.12;100.00;100533.91;5018414;28;20048;-71
2021/09/17 02:58:24;;;;;;;19.65;9.10;;;;;;;12.06;100.00;100532.66;5004481;28;20179;-71
2021/09/17 03:01:07;;;;;;;18.55;10.48;;;;;;;12.04;100.00;100529.31;5004130;28;20049;-71
2021/09/17 03:03:51;;;;;;;12.90;9.70;;;;;;;12.03;100.00;100532.13;5004072;28;20530;-71
2021/09/17 03:06:35;;;;;;;16.35;10.00;;;;;;;12.02;100.00;100530.44;5018225;28;20052;-71
2021/09/17 03:09:19;;;;;;;13.77;10.30;;;;;;;11.99;100.00;100526.22;5018122;28;20049;-71
2021/09/17 03:12:03;;;;;;;13.20;9.80;;;;;;;11.97;100.00;100528.19;5018031;28;20542;-71
2021/09/17 03:14:47;;;;;;;12.85;9.68;;;;;;;11.92;100.00;100530.50;5018166;28;20060;-71
2021/09/17 03:17:31;;;;;;;15.13;9.85;;;;;;;11.88;100.00;100526.41;5017886;28;20102;-69
2021/09/17 03:20:15;;;;;;;12.90;8.32;;;;;;;11.86;100.00;100522.22;5017810;28;20044;-71
2021/09/17 03:23:00;;;;;;;10.85;8.88;;;;;;;11.84;100.00;100517.00;5017893;28;20124;-70
2021/09/17 03:25:44;;;;;;;13.27;9.05;;;;;;;11.81;100.00;100519.97;5004158;28;20523;-71
2021/09/17 03:28:28;;;;;;;15.90;9.32;;;;;;;11.80;100.00;100523.63;5018252;28;20068;-71
2021/09/17 03:31:12;;;;;;;17.33;9.45;;;;;;;11.78;100.00;100520.25;5003873;28;20064;-71
2021/09/17 03:33:58;;;;;;;10.63;8.25;;;;;;;11.76;100.00;100522.22;5004164;28;20068;-70
2021/09/17 03:36:42;;;;;;;12.35;8.90;;;;;;;11.73;100.00;100519.88;5018078;28;20053;-71
2021/09/17 03:39:26;;;;;;;11.98;8.82;;;;;;;11.69;100.00;100523.78;5018153;28;20048;-70
2021/09/17 03:42:10;;;;;;;12.05;9.48;;;;;;;11.66;100.00;100523.25;5021723;28;20136;-71
2021/09/17 03:44:54;;;;;;;16.88;9.52;;;;;;;11.63;100.00;100526.22;5021601;28;20117;-71
2021/09/17 03:47:38;;;;;;;19.80;8.57;;;;;;;11.57;100.00;100522.28;5021327;28;20478;-71
2021/09/17 03:50:22;;;;;;;14.90;8.23;;;;;;;11.54;100.00;100521.69;5021662;28;20096;-71
2021/09/17 03:53:06;;;;;;;10.43;8.80;;;;;;;11.51;100.00;100517.50;5021460;28;20052;-71
2021/09/17 03:55:50;;;;;;;11.95;8.70;;;;;;;11.50;100.00;100523.84;5021445;28;20057;-68
2021/09/17 03:58:34;;;;;;;13.57;8.52;;;;;;;11.49;100.00;100519.44;5021319;28;20132;-71
2021/09/17 04:01:18;;;;;;;17.67;9.73;;;;;;;11.49;100.00;100518.63;5021265;28;20111;-71
2021/09/17 04:04:02;;;;;;;17.20;9.23;;;;;;;11.46;100.00;100513.59;5021192;28;20138;-71
2021/09/17 04:06:46;;;;;;;17.02;9.95;;;;;;;11.44;100.00;100520.88;5020915;28;20047;-71
2021/09/17 04:09:30;;;;;;;15.85;9.32;;;;;;;11.40;100.00;100515.00;5035978;28;20060;-71
2021/09/17 04:12:14;;;;;;;16.83;9.68;;;;;;;11.40;100.00;100520.34;5035874;28;20132;-71
2021/09/17 04:14:59;;;;;;;13.18;9.40;;;;;;;11.38;100.00;100518.78;5021345;28;20132;-71
2021/09/17 04:17:44;;;;;;;15.25;8.25;;;;;;;11.37;100.00;100523.28;5020969;28;20044;-71
2021/09/17 04:20:28;;;;;;;15.88;8.82;;;;;;;11.37;100.00;100525.94;5020545;28;20047;-71
2021/09/17 04:23:11;;;;;;;13.45;8.30;;;;;;;11.36;100.00;100518.94;5007004;28;20056;-71
2021/09/17 04:25:55;;;;;;;12.35;8.90;;;;;;;11.35;100.00;100511.09;5006998;28;20110;-71
2021/09/17 04:28:39;;;;;;;14.77;9.30;;;;;;;11.33;100.00;100508.53;5035807;28;20051;-71
2021/09/17 04:31:23;;;;;;;13.77;8.88;;;;;;;11.33;100.00;100513.03;5020788;28;20179;-71
2021/09/17 04:34:08;;;;;;;11.35;8.60;;;;;;;11.32;100.00;100514.88;5020696;28;20064;-71
2021/09/17 04:36:52;;;;;;;11.10;8.18;;;;;;;11.32;100.00;100511.34;5006838;28;20503;-72
2021/09/17 04:39:36;;;;;;;14.60;8.35;;;;;;;11.31;100.00;100513.19;5020312;28;20533;-72
2021/09/17 04:42:20;;;;;;;18.30;8.82;;;;;;;11.31;100.00;100515.84;5020587;28;20052;-70
2021/09/17 04:45:05;;;;;;;18.45;9.13;;;;;;;11.31;100.00;100515.00;5006819;28;20052;-71
2021/09/17 04:47:49;;;;;;;11.68;9.05;;;;;;;11.37;100.00;100520.59;5020422;28;20095;-71
2021/09/17 04:50:33;;;;;;;17.23;8.77;;;;;;;11.44;100.00;100521.72;5035311;28;20403;-71
2021/09/17 04:53:17;;;;;;;13.07;7.50;;;;;;;11.50;100.00;100529.19;5020061;28;20043;-71
2021/09/17 04:56:01;;;;;;;14.02;7.18;;;;;;;11.57;100.00;100526.81;5034999;28;20411;-71
2021/09/17 04:58:45;;;;;;;15.38;8.85;;;;;;;11.62;100.00;100525.38;5035147;28;20056;-70
2021/09/17 05:01:29;;;;;;;15.32;8.50;;;;;;;11.69;100.00;100521.13;5006201;28;20075;-71
2021/09/17 05:04:16;;;;;;;12.30;8.38;;;;;;;11.72;100.00;100515.50;5006269;28;20139;-70
2021/09/17 05:07:00;;;;;;;11.75;8.35;;;;;;;11.77;100.00;100518.56;5020491;28;20053;-69
2021/09/17 05:09:44;;;;;;;15.95;8.38;;;;;;;11.83;100.00;100518.00;5034627;28;20049;-71
2021/09/17 05:12:28;;;;;;;14.07;7.93;;;;;;;11.86;100.00;100523.03;5035026;28;20412;-71
2021/09/17 05:15:12;;;;;;;12.75;8.07;;;;;;;11.90;100.00;100513.75;5034949;28;20052;-71
2021/09/17 05:17:56;;;;;;;16.27;9.48;;;;;;;11.96;100.00;100520.31;5019850;28;20053;-71
2021/09/17 05:20:40;;;;;;;9.10;7.57;;;;;;;12.02;100.00;100517.94;5019700;28;20553;-70
2021/09/17 05:23:24;;;;;;;10.40;8.23;;;;;;;12.09;100.00;100528.88;5019506;28;20119;-71
2021/09/17 05:26:08;;;;;;;14.23;7.85;;;;;;;12.15;100.00;100521.09;5005958;28;20474;-71
2021/09/17 05:28:52;;;;;;;;;;;;;;;12.23;100.00;100523.88;5020317;28;20103;-71
2021/09/17 05:31:36;;;;;;;11.13;8.07;;;;;;;12.30;100.00;100524.13;5005598;28;20024;-71
2021/09/17 05:34:20;;;;;;;14.20;7.97;;;;;;;12.36;100.00;100528.84;5019243;28;20278;-71
2021/09/17 05:37:05;;;;;;;11.80;7.47;;;;;;;12.43;100.00;100528.13;5019587;28;20103;-71
2021/09/17 05:39:49;;;;;;;14.15;7.22;;;;;;;12.53;100.00;100523.56;5006546;28;20128;-71
2021/09/17 05:42:33;;;;;;;9.50;7.45;;;;;;;12.60;100.00;100523.81;5033346;28;20124;-71
2021/09/17 05:45:17;;;;;;;8.82;7.18;;;;;;;12.65;100.00;100522.34;5034130;28;20045;-70
2021/09/17 05:48:01;;;;;;;9.40;7.00;;;;;;;12.68;100.00;100524.72;5033372;28;20052;-71
2021/09/17 05:50:45;;;;;;;9.30;7.07;;;;;;;12.73;100.00;100524.25;5019419;28;20040;-71
2021/09/17 05:53:29;;;;;;;9.40;6.85;;;;;;;12.80;100.00;100528.84;5033157;28;20415;-71
2021/09/17 05:56:13;;;;;;;10.32;6.50;;;;;;;12.86;100.00;100525.56;5033194;28;20048;-71
2021/09/17 05:58:57;;;;;;;13.43;7.28;;;;;;;12.91;100.00;100524.13;5032907;28;20412;-72
2021/09/17 06:01:40;;;;;;;14.02;7.20;;;;;;;13.02;100.00;100529.28;5033000;28;20060;-71
2021/09/17 06:04:24;;;;;;;9.68;6.03;;;;;;;13.15;100.00;100523.53;5032206;28;20520;-71
2021/09/17 06:07:08;;;;;;;10.55;6.90;;;;;;;13.23;100.00;100523.59;5019244;28;20048;-71
2021/09/17 06:09:52;;;;;;;7.82;6.22;;;;;;;13.33;100.00;100529.69;5032442;28;20040;-69
2021/09/17 06:12:36;;;;;;;8.45;7.07;;;;;;;13.44;100.00;100534.78;5032944;28;20047;-71
2021/09/17 06:15:20;;;;;;;8.75;6.50;;;;;;;13.55;100.00;100519.31;5018805;28;20048;-69
2021/09/17 06:18:07;;;;;;;10.20;6.85;;;;;;;13.66;100.00;100521.75;5032749;28;20522;-71
2021/09/17 06:20:50;;;;;;;14.23;6.90;;;;;;;13.74;100.00;100518.25;5032336;28;20460;-71
2021/09/17 06:23:34;;;;;;;10.88;6.70;;;;;;;13.85;100.00;100509.94;5032680;28;20103;-71
2021/09/17 06:26:18;;;;;;;9.43;5.90;;;;;;;13.98;100.00;100513.88;5032597;28;20470;-72
2021/09/17 06:29:04;;;;;;;11.98;6.15;;;;;;;14.11;100.00;100526.84;5033253;28;20099;-72
2021/09/17 06:31:48;;;;;;;7.93;6.20;;;;;;;14.23;100.00;100525.59;5033291;28;20111;-71
2021/09/17 06:34:32;;;;;;;13.75;6.70;;;;;;;14.39;100.00;100526.50;5032587;28;20136;-71
2021/09/17 06:37:16;;;;;;;9.73;6.55;;;;;;;14.53;100.00;100525.03;5032244;28;20048;-71
2021/09/17 06:40:00;;;;;;;11.10;6.30;;;;;;;14.69;100.00;100533.97;5032040;28;20136;-70
2021/09/17 06:42:44;;;;;;;9.43;6.85;;;;;;;14.82;100.00;100529.00;5032441;28;20052;-71
2021/09/17 06:45:29;;;;;;;8.90;6.13;;;;;;;14.98;100.00;100531.69;5032460;28;20056;-72
2021/09/17 06:48:16;;;;;;;7.38;6.15;;;;;;;15.08;100.00;100535.06;5032363;28;20471;-71
2021/09/17 06:51:00;;;;;;;11.60;6.45;;;;;;;15.23;100.00;100529.88;5018073;28;20044;-71
2021/09/17 06:53:44;;;;;;;7.40;6.00;;;;;;;15.40;100.00;100523.53;5033270;28;20051;-71
2021/09/17 06:56:28;;;;;;;8.23;5.32;;;;;;;15.48;100.00;100523.50;5018329;28;20479;-71
2021/09/17 06:59:12;;;;;;;9.90;6.28;;;;;;;15.57;100.00;100531.41;5032119;28;20549;-72
2021/09/17 07:01:56;;;;;;;12.48;6.32;;;;;;;15.70;100.00;100527.19;5033211;28;20107;-71
2021/09/17 07:04:40;;;;;;;7.45;6.32;;;;;;;15.85;100.00;100525.47;5032227;28;20176;-71
2021/09/17 07:07:24;;;;;;;8.95;6.03;;;;;;;15.94;100.00;100524.44;5031949;28;20051;-71
2021/09/17 07:10:10;;;;;;;10.57;6.85;;;;;;;16.03;100.00;100522.56;5031865;28;20433;-72
2021/09/17 07:12:54;;;;;;;9.43;6.00;;;;;;;16.11;100.00;100522.53;5032247;28;20048;-71
2021/09/17 07:15:38;;;;;;;7.15;5.55;;;;;;;16.20;100.00;100519.66;5035637;28;20102;-71
2021/09/17 07:18:22;;;;;;;7.82;5.22;;;;;;;16.32;100.00;100523.63;5036321;28;20052;-72
2021/09/17 07:21:06;;;;;;;7.85;5.38;;;;;;;16.43;100.00;100525.97;5035953;28;20125;-72
2021/09/17 07:23:50;;;;;;;7.00;5.47;;;;;;;16.60;100.00;100524.84;5036716;28;20131;-71
2021/09/17 07:26:34;;;;;;;7.47;5.53;;;;;;;16.75;100.00;100520.41;5035957;28;20150;-72
2021/09/17 07:29:18;;;;;;;16.55;5.60;;;;;;;16.87;100.00;100518.97;5035814;28;20044;-72
2021/09/17 07:32:02;;;;;;;7.38;5.55;;;;;;;16.93;100.00;100526.38;5035912;28;20586;-71
2021/09/17 07:34:46;;;;;;;7.45;5.30;;;;;;;17.00;100.00;100524.59;5035861;28;20107;-71
2021/09/17 07:37:30;;;;;;;7.07;5.35;;;;;;;17.09;100.00;100528.91;5036576;28;20493;-72
2021/09/17 07:40:15;;;;;;;6.90;4.88;;;;;;;17.16;100.00;100519.13;5035173;28;20048;-71
2021/09/17 07:42:59;;;;;;;12.40;6.20;;;;;;;17.26;100.00;100526.94;5035722;28;20060;-71
2021/09/17 07:45:43;;;;;;;7.20;4.60;;;;;;;17.27;100.00;100523.22;5035363;28;20415;-71
2021/09/17 07:48:27;;;;;;;;;;;;;;;17.33;100.00;100526.06;5035970;28;20623;-71
2021/09/17 07:51:11;;;;;;;7.15;4.80;;;;;;;17.47;100.00;100524.44;5035529;28;19942;-70
2021/09/17 07:53:55;;;;;;;6.20;4.93;;;;;;;17.64;100.00;100528.66;5036205;28;20523;-71
2021/09/17 07:56:38;;;;;;;8.15;4.60;;;;;;;17.74;100.00;100523.84;5035456;28;20049;-71
2021/09/17 07:59:23;;;;;;;7.25;4.85;;;;;;;17.86;100.00;100528.63;5035150;28;20051;-72
2021/09/17 08:02:07;;;;;;;6.43;4.90;;;;;;;17.96;100.00;100518.41;5035242;28;20140;-71
2021/09/17 08:04:51;;;;;;;7.70;5.80;;;;;;;18.01;100.00;100532.16;5035241;28;20183;-71
2021/09/17 08:07:35;;;;;;;6.05;4.50;;;;;;;18.05;100.00;100525.38;5034924;28;20049;-69
2021/09/17 08:10:19;;;;;;;5.28;4.65;;;;;;;18.07;100.00;100526.03;5035900;28;20048;-71
2021/09/17 08:13:03;;;;;;;8.20;4.88;;;;;;;18.13;100.00;100524.44;5035331;28;20124;-71
2021/09/17 08:15:48;;;;;;;5.80;4.45;;;;;;;18.25;100.00;100529.19;5020732;28;20068;-72
2021/09/17 08:18:32;;;;;;;6.68;4.53;;;;;;;18.47;100.00;100525.56;5021136;28;20530;-70
2021/09/17 08:21:17;;;;;;;7.07;4.45;;;;;;;18.62;100.00;100520.97;5034607;28;20043;-72
2021/09/17 08:24:01;;;;;;;10.27;4.93;;;;;;;18.80;99.96;100524.91;5034979;28;20052;-71
2021/09/17 08:26:46;;;;;;;;;;;;;;;19.00;98.08;100522.44;5034062;28;20174;-71
2021/09/17 08:29:30;;;;;;;5.68;4.20;;;;;;;19.28;96.49;100528.81;5034497;28;19920;-71
2021/09/17 08:32:14;;;;;;;5.97;5.00;;;;;;;19.52;93.64;100525.69;5020554;28;20587;-72
2021/09/17 08:34:58;;;;;;;7.38;5.03;;;;;;;19.74;91.60;100513.78;5020990;28;20055;-71
2021/09/17 08:37:42;;;;;;;5.88;4.25;;;;;;;19.93;90.35;100513.09;5034368;28;20125;-71
2021/09/17 08:40:28;;;;;;;6.47;5.07;;;;;;;20.10;88.37;100520.72;5035726;28;20107;-71
2021/09/17 08:43:14;;;;;;;9.90;6.05;;;;;;;20.15;87.68;100517.44;5035407;28;20129;-72
2021/09/17 08:46:00;;;;;;;8.52;5.07;;;;;;;20.22;87.47;100524.53;5020623;28;20099;-70
2021/09/17 08:48:48;;;;;;;5.82;5.00;;;;;;;20.56;85.84;100520.97;5034357;28;20053;-72
2021/09/17 08:51:33;;;;;;;8.95;5.20;;;;;;;20.76;84.07;100519.16;5035315;28;20462;-71
2021/09/17 08:54:16;;;;;;;7.68;5.25;;;;;;;20.84;82.75;100524.41;5034292;28;20047;-72
2021/09/17 08:57:00;;;;;;;7.53;5.90;;;;;;;21.00;81.14;100524.06;5034494;28;20052;-71
2021/09/17 08:59:44;;;;;;;7.97;5.10;;;;;;;21.20;79.69;100521.16;5033910;28;20067;-72
2021/09/17 09:02:29;;;;;;;5.25;4.75;;;;;;;21.31;78.46;100523.31;5033836;28;20428;-71
2021/09/17 09:05:13;;;;;;;6.30;5.00;;;;;;;21.44;78.59;100520.59;5034038;28;20423;-71
2021/09/17 09:07:58;;;;;;;7.43;5.85;;;;;;;21.59;76.45;100515.78;5033820;28;20490;-72
2021/09/17 09:10:42;;;;;;;7.43;6.00;;;;;;;21.78;73.34;100525.00;5033626;28;20080;-71
2021/09/17 09:13:26;;;;;;;;;;;;;;;21.87;73.06;100516.44;5034157;28;20506;-71
2021/09/17 09:16:19;;;;;;;6.75;5.43;;;;;;;21.98;73.06;100518.50;5033950;28;19920;-72
2021/09/17 09:19:29;;;;;;;8.52;7.45;;;;;;;22.18;71.16;100515.72;5033515;28;20048;-72
2021/09/17 09:22:14;;;;;;;12.32;5.65;;;;;;;22.24;71.91;100510.31;5020198;28;20412;-72
2021/09/17 09:25:12;;;;;;;9.27;6.65;;;;;;;22.23;71.97;100516.78;5034762;28;20061;-72
2021/09/17 09:28:12;;;;;;;10.45;6.75;;;;;;;22.36;72.43;100519.47;5019676;28;20044;-72
2021/09/17 09:30:57;;;;;;;10.43;6.82;;;;;;;22.54;70.50;100516.06;5019552;28;20511;-71
2021/09/17 09:33:44;;;;;;;10.45;7.28;;;;;;;22.61;69.63;100512.28;5033301;28;20053;-72
2021/09/17 09:36:29;;;;;;;11.85;7.22;;;;;;;22.72;69.73;100514.31;5019315;28;20058;-71
2021/09/17 09:39:13;;;;;;;12.00;7.97;;;;;;;22.78;68.99;100518.91;5033811;28;20549;-72
2021/09/17 09:41:57;;;;;;;;;;;;;;;23.04;67.01;100513.28;5034868;28;20048;-71
2021/09/17 09:44:41;;;;;;;16.08;9.57;;;;;;;23.56;64.82;100510.25;5019244;28;20054;-71
2021/09/17 09:47:33;;;;;;;12.45;9.32;;;;;;;23.98;60.70;100505.91;5005783;28;20099;-71
2021/09/17 09:50:28;;;;;;;11.70;7.45;;;;;;;24.59;59.24;100505.66;5019096;28;20048;-71
2021/09/17 09:53:15;;;;;;;11.15;7.82;;;;;;;25.11;57.34;100504.09;5005544;28;20047;-71
2021/09/17 09:55:59;;;;;;;9.55;7.18;;;;;;;25.43;56.01;100508.25;5018922;28;20052;-72
2021/09/17 09:58:44;;;;;;;8.88;6.90;;;;;;;25.82;53.00;100502.13;5005204;28;20052;-71
2021/09/17 10:01:29;;;;;;;11.75;7.63;;;;;;;26.11;52.40;100498.44;5019175;28;20593;-71
2021/09/17 10:04:16;;;;;;;11.23;7.63;;;;;;;26.77;50.66;100496.91;5019090;28;20045;-71
2021/09/17 10:07:04;;;;;;;10.32;7.50;;;;;;;26.22;50.42;100487.53;5019214;28;20411;-71
2021/09/17 10:09:48;;;;;;;11.00;7.47;;;;;;;26.07;51.65;100494.53;5018830;28;20076;-71
2021/09/17 10:12:32;;;;;;;10.13;7.13;;;;;;;25.97;51.99;100488.84;5018627;28;20048;-71
2021/09/17 10:15:17;;;;;;;10.30;7.60;;;;;;;25.93;52.25;100487.69;5018817;28;20052;-71
2021/09/17 10:18:01;;;;;;;12.55;8.70;;;;;;;25.92;51.12;100486.03;5018873;28;20053;-71
2021/09/17 10:20:45;;;;;;;;;;;;;;;25.90;52.28;100483.50;5018733;28;20044;-71
2021/09/17 10:23:30;;;;;;;;;;;;;;;26.12;51.50;100475.56;5034116;28;19924;-71
2021/09/17 10:26:15;;;;;;;12.63;8.32;;;;;;;26.38;51.16;100483.22;5004789;28;19939;-72
2021/09/17 10:29:06;;;;;;;12.35;8.52;;;;;;;26.62;48.92;100480.22;5033239;28;20518;-72
2021/09/17 10:31:50;;;;;;;11.48;8.82;;;;;;;26.42;49.51;100476.19;5004798;28;20052;-71
2021/09/17 10:34:35;;;;;;;16.80;8.60;;;;;;;26.24;49.96;100474.44;5018631;28;20095;-71
2021/09/17 10:37:48;;;;;;;12.75;8.45;;;;;;;26.24;51.46;100468.16;5018691;28;20099;-71
2021/09/17 10:41:11;;;;;;;12.45;9.10;;;;;;;26.13;52.16;100471.75;5032934;28;20411;-71
2021/09/17 10:43:59;;;;;;;10.32;8.27;;;;;;;26.07;51.30;100467.22;5018694;28;20048;-71
2021/09/17 10:46:43;;;;;;;9.85;8.38;;;;;;;26.35;52.33;100465.38;5018443;28;20562;-72
2021/09/17 10:50:06;;;;;;;11.15;8.98;;;;;;;26.50;51.07;100462.13;5017807;28;20064;-71
2021/09/17 10:52:50;;;;;;;8.73;7.03;;;;;;;26.88;50.15;100462.38;5004208;28;20049;-72
2021/09/17 10:55:43;;;;;;;9.75;7.57;;;;;;;27.02;49.39;100464.56;5032033;28;20426;-72
2021/09/17 10:58:29;;;;;;;10.45;8.35;;;;;;;27.01;48.10;100471.94;5033021;28;20068;-72
2021/09/17 11:01:15;;;;;;;11.25;8.45;;;;;;;27.19;48.37;100466.28;5032853;28;20041;-71
2021/09/17 11:03:59;;;;;;;10.90;8.15;;;;;;;27.25;47.29;100461.72;5018223;28;20519;-71
2021/09/17 11:06:43;;;;;;;;;;;;;;;27.23;47.16;100459.22;5004554;28;20099;-71
2021/09/17 11:09:46;;;;;;;11.60;7.70;;;;;;;27.50;47.31;100460.25;5017846;28;20417;-71
2021/09/17 11:12:36;;;;;;;10.50;7.40;;;;;;;27.75;46.90;100460.69;5018003;28;20414;-73
2021/09/17 11:15:20;;;;;;;9.68;7.80;;;;;;;27.94;46.63;100451.09;5017919;28;20107;-70
2021/09/17 11:18:15;;;;;;;11.45;7.75;;;;;;;27.97;46.27;100453.34;5004204;28;20048;-71
2021/09/17 11:21:14;;;;;;;12.55;7.97;;;;;;;27.91;46.18;100457.09;5017744;28;20052;-72
2021/09/17 11:23:59;;;;;;;14.77;7.78;;;;;;;27.78;46.04;100449.22;5004285;28;20060;-72
2021/09/17 11:26:45;;;;;;;9.35;7.30;;;;;;;27.77;45.79;100453.06;5032978;28;20048;-71
2021/09/17 11:29:29;;;;;;;10.68;8.20;;;;;;;27.59;44.96;100445.06;5017944;28;20091;-72
2021/09/17 11:32:13;;;;;;;12.43;8.60;;;;;;;26.92;45.49;100441.66;5018002;28;20567;-71
2021/09/17 11:35:06;;;;;;;;;;;;;;;26.38;46.25;100444.94;5033460;28;20051;-71
2021/09/17 11:37:58;;;;;;;13.52;7.80;;;;;;;26.58;47.08;100440.75;5017929;28;19966;-71
2021/09/17 11:40:54;;;;;;;9.50;6.80;;;;;;;26.72;47.03;100441.28;5025767;28;20075;-71
2021/09/17 11:43:43;;;;;;;10.23;6.78;;;;;;;27.38;46.68;100432.13;5031570;28;20123;-72
2021/09/17 11:46:28;;;;;;;8.50;6.55;;;;;;;27.63;45.79;100435.25;5033081;28;20115;-71
2021/09/17 11:49:23;;;;;;;6.35;5.25;;;;;;;27.99;44.46;100421.03;5017799;28;20052;-71
2021/09/17 11:52:12;;;;;;;9.70;5.80;;;;;;;28.42;43.57;100423.00;5017794;28;20048;-72
2021/09/17 11:55:10;;;;;;;8.10;5.95;;;;;;;29.27;42.09;100430.19;5031370;28;20080;-72
2021/09/17 11:57:57;;;;;;;8.50;5.55;;;;;;;29.84;39.76;100411.13;5031705;28;20124;-72
2021/09/17 12:00:41;;;;;;;11.38;5.15;;;;;;;31.73;35.60;100411.66;5017353;28;20083;-71
2021/09/17 12:03:25;;;;;;;9.02;4.43;;;;;;;33.90;31.77;100403.47;5035041;28;20103;-72
2021/09/17 12:06:10;;;;;;;7.40;5.40;;;;;;;35.64;29.20;100399.31;5034817;28;20052;-71
2021/09/17 12:08:56;;;;;;;6.10;4.80;;;;;;;36.87;27.58;100401.81;5035094;28;20150;-72
2021/09/17 12:11:40;;;;;;;7.05;4.38;;;;;;;38.06;25.89;100399.84;5034913;28;20099;-71
2021/09/17 12:14:24;;;;;;;5.30;4.53;;;;;;;38.28;24.88;100395.03;5020920;28;20522;-72
2021/09/17 12:17:08;;;;;;;5.72;2.95;;;;;;;39.32;21.80;100394.88;5034855;28;20044;-72
2021/09/17 12:20:06;;;;;;;3.92;2.80;;;;;;;38.33;22.73;100394.06;5020856;28;20127;-72
2021/09/17 12:22:56;;;;;;;5.40;2.78;;;;;;;38.95;22.42;100392.72;5035470;28;20051;-71
2021/09/17 12:25:41;;;;;;;4.13;2.67;;;;;;;39.62;22.02;100395.47;5020801;28;20048;-72
2021/09/17 12:28:25;;;;;;;4.53;2.47;;;;;;;40.20;21.35;100392.00;5035630;28;20184;-72
2021/09/17 12:31:10;;;;;;;3.25;2.40;;;;;;;40.44;20.35;100390.22;5035286;28;20049;-72
2021/09/17 12:34:07;;;;;;;6.13;4.32;;;;;;;40.25;20.23;100387.03;5035646;28;20144;-72
2021/09/17 12:36:53;;;;;;;5.10;3.13;;;;;;;40.40;20.32;100383.63;5034353;28;20523;-72